Time,TemperatureF,DewpointF,PressureIn,WindDirection,WindDirectionDegrees,WindSpeedMPH,WindSpeedGustMPH,Humidity,HourlyPrecipIn,Conditions,Clouds,dailyrainin,SoftwareType,DateUTC
2013-09-06 00:13:00,69.2,68.0,30.10,North,9,0.0,0.0,94,0.00,,,0.00,weatherlink.com 1.10,2013-09-06 04:13:00,
2013-09-06 00:28:00,69.2,68.0,30.10,North,9,0.0,0.0,94,0.00,,,0.00,weatherlink.com 1.10,2013-09-06 04:28:00,
2013-09-06 00:43:00,69.0,67.0,30.10,North,9,0.0,0.0,94,0.00,,,0.00,weatherlink.com 1.10,2013-09-06 04:43:00,
2013-09-06 00:58:00,68.6,67.0,30.10,North,8,0.0,0.0,94,0.00,,,0.00,weatherlink.com 1.10,2013-09-06 04:58:00,
2013-09-06 01:13:00,68.1,66.0,30.09,North,9,0.0,0.0,94,0.00,,,0.00,weatherlink.com 1.10,2013-09-06 05:13:00,
2013-09-06 01:28:00,67.8,66.0,30.09,North,9,0.0,0.0,95,0.00,,,0.00,weatherlink.com 1.10,2013-09-06 05:28:00,
2013-09-06 01:43:00,67.5,66.0,30.09,North,9,0.0,0.0,95,0.00,,,0.00,weatherlink.com 1.10,2013-09-06 05:43:00,
2013-09-06 01:58:00,67.4,66.0,30.09,North,9,0.0,0.0,95,0.00,,,0.00,weatherlink.com 1.10,2013-09-06 05:58:00,
2013-09-06 02:13:00,66.9,66.0,30.09,North,9,0.0,0.0,95,0.00,,,0.00,weatherlink.com 1.10,2013-09-06 06:13:00,
2013-09-06 02:28:00,67.1,66.0,30.08,North,9,0.0,0.0,95,0.00,,,0.00,weatherlink.com 1.10,2013-09-06 06:28:00,
2013-09-06 02:43:00,66.6,65.0,30.08,North,9,0.0,0.0,95,0.00,,,0.00,weatherlink.com 1.10,2013-09-06 06:43:00,
2013-09-06 02:58:00,66.2,65.0,30.08,North,9,0.0,0.0,95,0.00,,,0.00,weatherlink.com 1.10,2013-09-06 06:58:00,
2013-09-06 03:13:00,66.0,65.0,30.08,North,9,0.0,0.0,95,0.00,,,0.00,weatherlink.com 1.10,2013-09-06 07:13:00,
2013-09-06 03:28:00,66.1,65.0,30.08,North,9,0.0,0.0,95,0.00,,,0.00,weatherlink.com 1.10,2013-09-06 07:28:00,
2013-09-06 03:43:00,65.9,65.0,30.08,North,9,0.0,0.0,95,0.00,,,0.00,weatherlink.com 1.10,2013-09-06 07:43:00,
2013-09-06 03:58:00,65.7,64.0,30.08,North,9,0.0,0.0,95,0.00,,,0.00,weatherlink.com 1.10,2013-09-06 07:58:00,
2013-09-06 04:13:00,66.0,65.0,30.08,North,9,0.0,0.0,95,0.00,,,0.00,weatherlink.com 1.10,2013-09-06 08:13:00,
2013-09-06 04:28:00,65.5,64.0,30.08,North,9,0.0,0.0,95,0.00,,,0.00,weatherlink.com 1.10,2013-09-06 08:28:00,
2013-09-06 04:43:00,65.6,64.0,30.08,North,9,0.0,0.0,95,0.00,,,0.00,weatherlink.com 1.10,2013-09-06 08:43:00,
2013-09-06 04:58:00,65.7,64.0,30.08,North,9,0.0,0.0,95,0.00,,,0.00,weatherlink.com 1.10,2013-09-06 08:58:00,
2013-09-06 05:13:00,65.2,64.0,30.08,North,9,0.0,0.0,95,0.00,,,0.00,weatherlink.com 1.10,2013-09-06 09:13:00,
2013-09-06 05:28:00,65.0,64.0,30.08,North,9,0.0,0.0,95,0.00,,,0.00,weatherlink.com 1.10,2013-09-06 09:28:00,
2013-09-06 05:43:00,64.9,64.0,30.08,North,9,0.0,0.0,95,0.00,,,0.00,weatherlink.com 1.10,2013-09-06 09:43:00,
2013-09-06 05:59:00,64.6,63.0,30.09,North,9,0.0,0.0,95,0.00,,,0.00,weatherlink.com 1.10,2013-09-06 09:59:00,
2013-09-06 06:14:00,64.7,63.0,30.09,North,9,0.0,0.0,95,0.00,,,0.00,weatherlink.com 1.10,2013-09-06 10:14:00,
2013-09-06 06:29:00,64.9,64.0,30.09,North,9,0.0,0.0,96,0.00,,,0.00,weatherlink.com 1.10,2013-09-06 10:29:00,
2013-09-06 06:44:00,64.9,64.0,30.10,North,9,0.0,0.0,96,0.00,,,0.00,weatherlink.com 1.10,2013-09-06 10:44:00,
2013-09-06 06:59:00,64.8,63.0,30.10,North,9,0.0,0.0,95,0.00,,,0.00,weatherlink.com 1.10,2013-09-06 10:59:00,
2013-09-06 07:14:00,65.4,64.0,30.11,North,8,0.0,0.0,96,0.00,,,0.00,weatherlink.com 1.10,2013-09-06 11:14:00,
2013-09-06 07:29:00,66.0,65.0,30.11,North,9,0.0,0.0,96,0.00,,,0.00,weatherlink.com 1.10,2013-09-06 11:29:00,
2013-09-06 07:44:00,66.2,65.0,30.12,North,9,0.0,0.0,96,0.00,,,0.00,weatherlink.com 1.10,2013-09-06 11:44:00,
2013-09-06 07:59:00,66.5,65.0,30.12,North,9,0.0,0.0,96,0.00,,,0.00,weatherlink.com 1.10,2013-09-06 11:59:00,
2013-09-06 08:14:00,66.8,66.0,30.12,North,9,0.0,0.0,96,0.00,,,0.00,weatherlink.com 1.10,2013-09-06 12:14:00,
2013-09-06 08:29:00,67.2,66.0,30.12,North,9,0.0,0.0,96,0.00,,,0.00,weatherlink.com 1.10,2013-09-06 12:29:00,
2013-09-06 08:44:00,67.5,66.0,30.13,North,9,0.0,0.0,96,0.00,,,0.00,weatherlink.com 1.10,2013-09-06 12:44:00,
2013-09-06 08:59:00,67.8,67.0,30.13,North,9,0.0,0.0,96,0.00,,,0.00,weatherlink.com 1.10,2013-09-06 12:59:00,
2013-09-06 09:14:00,68.2,67.0,30.13,North,9,0.0,0.0,96,0.00,,,0.00,weatherlink.com 1.10,2013-09-06 13:14:00,
2013-09-06 09:29:00,68.7,67.0,30.14,East,79,0.0,1.0,95,0.00,,,0.00,weatherlink.com 1.10,2013-09-06 13:29:00,
2013-09-06 09:44:00,69.6,68.0,30.14,NE,47,0.0,1.0,94,0.00,,,0.00,weatherlink.com 1.10,2013-09-06 13:44:00,
2013-09-06 09:59:00,70.4,68.0,30.14,ENE,64,0.0,1.0,92,0.00,,,0.00,weatherlink.com 1.10,2013-09-06 13:59:00,
2013-09-06 10:14:00,71.3,67.0,30.14,East,101,0.0,1.0,87,0.00,,,0.00,weatherlink.com 1.10,2013-09-06 14:14:00,
2013-09-06 10:29:00,72.3,68.0,30.14,West,261,0.0,1.0,85,0.00,,,0.00,weatherlink.com 1.10,2013-09-06 14:29:00,
2013-09-06 10:44:00,73.3,68.0,30.15,SW,219,0.0,4.0,82,0.00,,,0.00,weatherlink.com 1.10,2013-09-06 14:44:00,
2013-09-06 10:59:00,74.1,68.0,30.15,ENE,57,0.0,2.0,81,0.00,,,0.00,weatherlink.com 1.10,2013-09-06 14:59:00,
2013-09-06 11:14:00,74.8,68.0,30.15,ENE,75,0.0,1.0,78,0.00,,,0.00,weatherlink.com 1.10,2013-09-06 15:14:00,
2013-09-06 11:29:00,76.6,68.0,30.15,NE,46,0.0,1.0,75,0.00,,,0.00,weatherlink.com 1.10,2013-09-06 15:29:00,
2013-09-06 11:44:00,77.8,68.0,30.15,SE,146,0.0,5.0,71,0.00,,,0.00,weatherlink.com 1.10,2013-09-06 15:44:00,
2013-09-06 11:59:00,78.3,70.0,30.14,SW,228,0.0,1.0,75,0.00,,,0.00,weatherlink.com 1.10,2013-09-06 15:59:00,
2013-09-06 12:14:00,79.8,69.0,30.14,ESE,105,0.0,3.0,69,0.00,,,0.00,weatherlink.com 1.10,2013-09-06 16:14:00,
2013-09-06 12:29:00,81.3,70.0,30.14,South,174,0.0,1.0,68,0.00,,,0.00,weatherlink.com 1.10,2013-09-06 16:29:00,
2013-09-06 12:45:00,82.0,69.0,30.14,ENE,64,1.0,3.0,65,0.00,,,0.00,weatherlink.com 1.10,2013-09-06 16:45:00,
2013-09-06 13:00:00,82.9,68.0,30.14,SSE,165,0.0,1.0,62,0.00,,,0.00,weatherlink.com 1.10,2013-09-06 17:00:00,
2013-09-06 13:15:00,83.3,69.0,30.13,SW,214,1.0,2.0,63,0.00,,,0.00,weatherlink.com 1.10,2013-09-06 17:15:00,
2013-09-06 13:30:00,84.6,70.0,30.12,SSE,153,0.0,2.0,61,0.00,,,0.00,weatherlink.com 1.10,2013-09-06 17:30:00,
2013-09-06 13:45:00,84.9,70.0,30.12,East,90,0.0,2.0,61,0.00,,,0.00,weatherlink.com 1.10,2013-09-06 17:45:00,
2013-09-06 14:00:00,84.7,70.0,30.11,NNE,21,0.0,1.0,61,0.00,,,0.00,weatherlink.com 1.10,2013-09-06 18:00:00,
2013-09-06 14:15:00,85.8,70.0,30.11,NNE,18,0.0,2.0,59,0.00,,,0.00,weatherlink.com 1.10,2013-09-06 18:15:00,
2013-09-06 14:30:00,85.5,71.0,30.11,NE,46,0.0,3.0,62,0.00,,,0.00,weatherlink.com 1.10,2013-09-06 18:30:00,
2013-09-06 14:45:00,84.7,71.0,30.10,ENE,57,0.0,1.0,63,0.00,,,0.00,weatherlink.com 1.10,2013-09-06 18:45:00,
2013-09-06 15:00:00,85.6,71.0,30.09,ENE,67,0.0,5.0,62,0.00,,,0.00,weatherlink.com 1.10,2013-09-06 19:00:00,
2013-09-06 15:15:00,86.0,70.0,30.09,NE,39,0.0,2.0,60,0.00,,,0.00,weatherlink.com 1.10,2013-09-06 19:15:00,
2013-09-06 15:30:00,86.2,71.0,30.09,NNE,25,1.0,2.0,61,0.00,,,0.00,weatherlink.com 1.10,2013-09-06 19:30:00,
2013-09-06 15:45:00,87.6,70.0,30.08,SW,232,0.0,2.0,56,0.00,,,0.00,weatherlink.com 1.10,2013-09-06 19:45:00,
2013-09-06 16:00:00,86.4,69.0,30.08,NE,47,0.0,2.0,57,0.00,,,0.00,weatherlink.com 1.10,2013-09-06 20:00:00,
2013-09-06 16:15:00,86.5,69.0,30.07,ENE,77,0.0,1.0,57,0.00,,,0.00,weatherlink.com 1.10,2013-09-06 20:15:00,
2013-09-06 16:30:00,85.9,70.0,30.07,ENE,60,0.0,1.0,60,0.00,,,0.00,weatherlink.com 1.10,2013-09-06 20:30:00,
2013-09-06 16:45:00,84.1,70.0,30.06,NE,51,0.0,1.0,62,0.00,,,0.00,weatherlink.com 1.10,2013-09-06 20:45:00,
2013-09-06 17:00:00,85.9,70.0,30.06,ENE,60,0.0,3.0,59,0.00,,,0.00,weatherlink.com 1.10,2013-09-06 21:00:00,
2013-09-06 17:15:00,86.2,71.0,30.06,ENE,65,0.0,1.0,60,0.00,,,0.00,weatherlink.com 1.10,2013-09-06 21:15:00,
2013-09-06 17:30:00,83.3,70.0,30.06,ENE,68,0.0,0.0,65,0.00,,,0.00,weatherlink.com 1.10,2013-09-06 21:30:00,
2013-09-06 17:45:00,83.7,70.0,30.05,ENE,67,0.0,1.0,64,0.00,,,0.00,weatherlink.com 1.10,2013-09-06 21:45:00,
2013-09-06 18:00:00,84.8,71.0,30.05,East,79,0.0,2.0,64,0.00,,,0.00,weatherlink.com 1.10,2013-09-06 22:00:00,
2013-09-06 18:15:00,84.6,71.0,30.05,East,86,0.0,1.0,64,0.00,,,0.00,weatherlink.com 1.10,2013-09-06 22:15:00,
2013-09-06 18:30:00,83.6,71.0,30.05,ENE,63,0.0,1.0,66,0.00,,,0.00,weatherlink.com 1.10,2013-09-06 22:30:00,
2013-09-06 18:45:00,83.3,72.0,30.05,ESE,118,0.0,1.0,68,0.00,,,0.00,weatherlink.com 1.10,2013-09-06 22:45:00,
2013-09-06 19:00:00,82.4,71.0,30.05,East,82,0.0,1.0,68,0.00,,,0.00,weatherlink.com 1.10,2013-09-06 23:00:00,
2013-09-06 19:15:00,81.0,70.0,30.05,East,82,0.0,0.0,70,0.00,,,0.00,weatherlink.com 1.10,2013-09-06 23:15:00,
2013-09-06 19:30:00,79.2,71.0,30.05,East,82,0.0,0.0,75,0.00,,,0.00,weatherlink.com 1.10,2013-09-06 23:30:00,
2013-09-06 19:45:00,77.7,70.0,30.05,East,82,0.0,0.0,76,0.00,,,0.00,weatherlink.com 1.10,2013-09-06 23:45:00,
2013-09-06 20:00:00,76.3,69.0,30.05,East,82,0.0,0.0,79,0.00,,,0.00,weatherlink.com 1.10,2013-09-07 00:00:00,
2013-09-06 20:15:00,75.2,69.0,30.06,East,82,0.0,0.0,80,0.00,,,0.00,weatherlink.com 1.10,2013-09-07 00:15:00,
2013-09-06 20:30:00,74.4,69.0,30.06,East,82,0.0,0.0,82,0.00,,,0.00,weatherlink.com 1.10,2013-09-07 00:30:00,
2013-09-06 20:45:00,73.7,69.0,30.06,East,82,0.0,0.0,84,0.00,,,0.00,weatherlink.com 1.10,2013-09-07 00:45:00,
2013-09-06 21:00:00,73.0,68.0,30.07,East,82,0.0,0.0,85,0.00,,,0.00,weatherlink.com 1.10,2013-09-07 01:00:00,
2013-09-06 21:15:00,72.5,69.0,30.07,East,82,0.0,0.0,87,0.00,,,0.00,weatherlink.com 1.10,2013-09-07 01:15:00,
2013-09-06 21:30:00,72.0,68.0,30.08,East,82,0.0,0.0,87,0.00,,,0.00,weatherlink.com 1.10,2013-09-07 01:30:00,
2013-09-06 21:45:00,71.6,68.0,30.08,East,82,0.0,0.0,88,0.00,,,0.00,weatherlink.com 1.10,2013-09-07 01:45:00,
2013-09-06 22:00:00,71.3,68.0,30.09,East,82,0.0,0.0,89,0.00,,,0.00,weatherlink.com 1.10,2013-09-07 02:00:00,
2013-09-06 22:15:00,71.0,68.0,30.09,East,82,0.0,0.0,90,0.00,,,0.00,weatherlink.com 1.10,2013-09-07 02:15:00,
2013-09-06 22:30:00,70.6,68.0,30.09,East,82,0.0,0.0,90,0.00,,,0.00,weatherlink.com 1.10,2013-09-07 02:30:00,
2013-09-06 22:45:00,70.1,67.0,30.09,East,82,0.0,0.0,91,0.00,,,0.00,weatherlink.com 1.10,2013-09-07 02:45:00,
2013-09-06 23:00:00,69.7,67.0,30.08,East,82,0.0,0.0,91,0.00,,,0.00,weatherlink.com 1.10,2013-09-07 03:00:00,
2013-09-06 23:15:00,69.3,67.0,30.09,East,82,0.0,0.0,92,0.00,,,0.00,weatherlink.com 1.10,2013-09-07 03:15:00,
2013-09-06 23:30:00,69.0,67.0,30.09,East,82,0.0,0.0,92,0.00,,,0.00,weatherlink.com 1.10,2013-09-07 03:30:00,
2013-09-06 23:45:00,68.8,67.0,30.09,East,82,0.0,0.0,93,0.00,,,0.00,weatherlink.com 1.10,2013-09-07 03:45:00,